Time;durP1;ratioP1;P1;durP2;ratioP2;P2;SDS_P1;SDS_P2;PMS_P1;PMS_P2;Temp;Humidity;BMP_temperature;BMP_pressure;BME280_temperature;BME280_humidity;BME280_pressure;Samples;Min_cycle;Max_cycle;Signal;HPM_P1;HPM_P2
2022/08/12 00:43:58;;;;;;;1.88;1.10;;;;;;;-140.72;21.13;52078.38;4997063;28;20040;-67
2022/08/12 00:46:35;;;;;;;1.48;1.00;;;;;;;-140.72;24.89;52078.38;5012926;28;20109;-67
2022/08/12 00:49:01;;;;;;;1.83;1.20;;;;;;;-140.72;25.61;52121.00;5009560;28;20030;-67
2022/08/12 00:52:04;;;;;;;2.53;1.38;;;;;;;-140.72;30.48;52082.44;4993566;28;20026;-67
2022/08/12 00:54:15;;;;;;;1.60;1.00;;;;;;;-140.72;35.92;52118.97;5007677;28;20036;-67
2022/08/12 00:56:41;;;;;;;1.42;1.05;;;;;;;-140.72;38.31;52123.03;5000430;28;20021;-67
2022/08/12 00:59:07;;;;;;;1.85;1.10;;;;;;;-140.72;39.14;52104.75;4998868;28;20489;-67
2022/08/12 01:01:34;;;;;;;2.03;1.20;;;;;;;-140.72;39.40;52100.72;5005288;28;20030;-66
2022/08/12 01:12:49;;;;;;;2.00;1.15;;;;;;;-140.72;52.09;52092.59;4993317;28;20072;-67
2022/08/12 01:15:21;;;;;;;2.63;1.58;;;;;;;-140.72;62.47;52123.03;4992598;28;20039;-67
2022/08/12 01:17:46;;;;;;;1.70;1.02;;;;;;;-140.72;73.68;52110.84;4993538;28;20041;-66
2022/08/12 01:20:24;;;;;;;3.10;1.15;;;;;;;-140.72;80.53;52100.72;4987704;28;20031;-66
2022/08/12 01:23:07;;;;;;;1.95;1.15;;;;;;;-140.72;88.55;52118.97;4991971;28;20472;-67
2022/08/12 01:25:37;;;;;;;2.42;1.20;;;;;;;-140.72;89.49;52131.16;5008109;28;20041;-66
2022/08/12 01:28:05;;;;;;;2.53;1.35;;;;;;;-140.72;91.23;52127.09;4989235;28;20099;-67
2022/08/12 01:30:32;;;;;;;2.08;1.25;;;;;;;-140.72;89.28;52086.50;4993011;28;20038;-66
2022/08/12 01:33:01;;;;;;;2.15;1.17;;;;;;;-140.72;88.31;52076.34;4996503;28;20490;-66
2022/08/12 01:35:30;;;;;;;2.47;1.50;;;;;;;-140.72;94.58;52086.50;5021082;28;20050;-67
2022/08/12 01:38:36;;;;;;;1.53;1.10;;;;;;;-140.72;100.00;52098.69;5008241;28;20042;-66
2022/08/12 01:41:02;;;;;;;2.65;1.40;;;;;;;-140.72;100.00;52100.72;4995000;28;20266;-66
2022/08/12 01:43:30;;;;;;;2.95;1.23;;;;;;;-140.72;100.00;52151.44;4996093;28;20033;-67
2022/08/12 01:49:56;;;;;;;2.75;1.50;;;;;;;-140.72;100.00;52127.09;4997920;28;20056;-66
2022/08/12 01:52:33;;;;;;;3.15;1.70;;;;;;;-140.72;100.00;52137.22;4989791;28;20069;-67
2022/08/12 01:55:19;;;;;;;2.20;1.20;;;;;;;-140.72;100.00;52135.19;5010811;28;20038;-66
2022/08/12 01:57:49;;;;;;;4.60;1.67;;;;;;;-140.72;100.00;52121.00;4983603;28;20050;-67
2022/08/12 02:00:16;;;;;;;;;;;;;;;-140.72;100.00;52135.19;4997727;28;20089;-67
2022/08/12 02:02:52;;;;;;;3.08;1.73;;;;;;;-140.72;100.00;52114.91;5008258;28;19913;-66
2022/08/12 02:11:30;;;;;;;5.05;1.73;;;;;;;-140.72;100.00;52139.25;4996258;28;20073;-67
2022/08/12 02:14:27;;;;;;;2.95;1.83;;;;;;;-140.72;100.00;52163.59;4995909;28;20030;-66
2022/08/12 02:17:18;;;;;;;2.85;1.75;;;;;;;-140.72;100.00;52129.13;5010540;28;20038;-67
2022/08/12 02:19:55;;;;;;;2.90;1.58;;;;;;;-140.72;100.00;52143.31;4996078;28;20432;-66
2022/08/12 02:22:32;;;;;;;3.25;1.90;;;;;;;-140.72;100.00;52155.50;4994617;28;20493;-67
2022/08/12 02:25:36;;;;;;;2.80;1.65;;;;;;;-140.72;100.00;52112.88;4994501;28;20493;-67
2022/08/12 02:28:02;;;;;;;5.90;2.25;;;;;;;-140.72;100.00;52194.03;4955967;28;20390;-66
2022/08/12 02:30:30;;;;;;;3.38;2.20;;;;;;;-140.72;100.00;52127.09;4995711;28;20042;-67
2022/08/12 02:32:56;;;;;;;2.50;1.63;;;;;;;-140.72;100.00;52143.31;4995486;28;20034;-67
2022/08/12 02:35:26;;;;;;;2.88;1.88;;;;;;;-140.72;100.00;52145.34;4997610;28;20050;-67
2022/08/12 02:37:55;;;;;;;1.70;1.02;;;;;;;-140.72;100.00;52155.50;4996016;28;20034;-66
2022/08/12 02:40:41;;;;;;;3.20;2.00;;;;;;;-140.72;100.00;52135.19;4997674;28;20023;-67
2022/08/12 02:43:20;;;;;;;2.85;2.05;;;;;;;-140.72;100.00;52145.34;4988913;28;20081;-67
2022/08/12 02:45:52;;;;;;;2.40;1.60;;;;;;;-140.72;100.00;52175.78;4994371;28;20054;-67
2022/08/12 02:48:29;;;;;;;3.13;2.10;;;;;;;-140.72;100.00;52141.28;4982803;28;20026;-67
2022/08/12 02:50:56;;;;;;;3.50;1.90;;;;;;;-140.72;100.00;52141.28;5003525;28;20030;-67
2022/08/12 02:53:23;;;;;;;3.30;2.22;;;;;;;-140.72;100.00;52163.59;4998299;28;20493;-67
2022/08/12 02:55:48;;;;;;;2.58;2.00;;;;;;;-140.72;100.00;52123.03;5004721;28;20030;-67
2022/08/12 02:58:14;;;;;;;2.90;2.13;;;;;;;-140.72;100.00;52141.28;4995006;28;20088;-67
2022/08/12 03:00:42;;;;;;;3.67;1.85;;;;;;;-140.72;100.00;52187.97;4994950;28;20081;-67
2022/08/12 03:03:09;;;;;;;2.80;1.90;;;;;;;-140.72;100.00;52165.63;4994768;28;20030;-67
2022/08/12 03:05:45;;;;;;;2.70;1.67;;;;;;;-140.72;100.00;52143.31;4995164;28;20089;-67
2022/08/12 03:08:12;;;;;;;3.00;2.00;;;;;;;-140.72;100.00;52153.47;5005092;28;20079;-67
2022/08/12 03:10:41;;;;;;;2.33;1.75;;;;;;;-140.72;100.00;52179.84;4997651;28;20439;-66
2022/08/12 03:13:08;;;;;;;3.50;1.80;;;;;;;-140.72;100.00;52147.38;4994760;28;20031;-67
2022/08/12 03:15:35;;;;;;;2.70;2.10;;;;;;;-140.72;100.00;52163.59;4994711;28;20173;-67
2022/08/12 03:18:20;;;;;;;5.50;2.15;;;;;;;-140.72;100.00;52200.13;4994536;28;20023;-67
2022/08/12 03:20:45;;;;;;;3.00;1.88;;;;;;;-140.72;100.00;52187.97;4990132;28;20026;-67
2022/08/12 03:23:12;;;;;;;3.30;1.75;;;;;;;-140.72;100.00;52179.84;4999827;28;20391;-67
2022/08/12 03:25:39;;;;;;;3.05;1.98;;;;;;;-140.72;100.00;52179.84;5002299;28;20041;-66
2022/08/12 03:28:09;;;;;;;2.55;1.80;;;;;;;-140.72;100.00;52196.06;4999069;28;20034;-67
2022/08/12 03:30:36;;;;;;;2.25;1.77;;;;;;;-140.72;100.00;52163.59;4993266;28;20490;-66
2022/08/12 03:33:02;;;;;;;4.53;2.40;;;;;;;-140.72;100.00;52173.75;4994330;28;20034;-67
2022/08/12 03:35:31;;;;;;;3.47;2.65;;;;;;;-140.72;100.00;52169.69;4994398;28;20108;-67
2022/08/12 03:38:08;;;;;;;2.80;1.88;;;;;;;-140.72;100.00;52171.72;4993828;28;20033;-67
2022/08/12 03:41:34;;;;;;;3.88;2.20;;;;;;;-140.72;100.00;52173.75;4994818;28;20119;-67
2022/08/12 04:00:29;;;;;;;3.67;2.90;;;;;;;-140.72;100.00;52196.06;5000859;28;20123;-67
2022/08/12 04:03:00;;;;;;;4.18;3.17;;;;;;;-140.72;100.00;52216.34;5012464;28;20028;-67
2022/08/12 04:05:29;;;;;;;4.03;2.85;;;;;;;-140.72;100.00;52206.22;4998102;28;20030;-67
2022/08/12 04:07:57;;;;;;;4.50;2.22;;;;;;;-140.72;100.00;52185.94;5015083;28;20488;-68
2022/08/12 04:13:13;;;;;;;4.00;2.58;;;;;;;-140.72;100.00;52226.50;5011848;28;20482;-67
2022/08/12 04:13:18;;;;;;;3.85;2.35;;;;;;;-140.72;100.00;52143.31;4993896;28;20034;-68
2022/08/12 04:15:46;;;;;;;3.70;2.60;;;;;;;-140.72;100.00;52133.16;4982284;28;20466;-67
2022/08/12 04:18:14;;;;;;;3.25;2.42;;;;;;;-140.72;100.00;52204.19;4993157;28;20030;-67
2022/08/12 04:20:43;;;;;;;3.78;2.75;;;;;;;-140.72;100.00;52192.00;4993816;28;20026;-67
2022/08/12 04:23:14;;;;;;;4.13;2.25;;;;;;;-140.72;100.00;52196.06;4992219;28;20084;-67
2022/08/12 04:25:40;;;;;;;2.83;1.95;;;;;;;-140.72;100.00;52236.66;4992591;28;20034;-68
2022/08/12 04:28:08;;;;;;;3.88;2.60;;;;;;;-140.72;100.00;52165.63;4993984;28;20077;-71
2022/08/12 04:30:35;;;;;;;3.35;2.22;;;;;;;-140.72;100.00;52198.09;4993660;28;20030;-69
2022/08/12 04:33:01;;;;;;;5.10;2.67;;;;;;;-140.72;100.00;52218.38;4993574;28;20466;-74
2022/08/12 04:35:26;;;;;;;3.08;2.10;;;;;;;-140.72;100.00;52204.19;5003398;28;20084;-73
2022/08/12 04:37:54;;;;;;;2.72;2.17;;;;;;;-140.72;100.00;52200.13;4995690;28;20061;-74
2022/08/12 04:40:22;;;;;;;2.90;1.98;;;;;;;-140.72;100.00;52187.97;4992781;28;20030;-75
2022/08/12 04:42:48;;;;;;;3.33;2.05;;;;;;;-140.72;100.00;52220.41;4991823;28;20095;-73
2022/08/12 04:45:14;;;;;;;2.97;2.20;;;;;;;-140.72;100.00;52204.19;4996226;28;20050;-73
2022/08/12 04:47:39;;;;;;;2.97;2.25;;;;;;;-140.72;100.00;52216.34;4995910;28;20019;-73
2022/08/12 04:50:06;;;;;;;3.83;2.40;;;;;;;-140.72;100.00;52220.41;4992063;28;20033;-73
2022/08/12 04:52:32;;;;;;;4.18;3.00;;;;;;;-140.72;100.00;52169.69;4994651;28;20030;-73
2022/08/12 04:54:58;;;;;;;5.03;2.28;;;;;;;-140.72;100.00;52232.59;4991918;28;20034;-74
2022/08/12 04:57:23;;;;;;;4.28;2.65;;;;;;;-140.72;100.00;52175.78;4992762;28;20015;-73
2022/08/12 04:59:48;;;;;;;4.22;2.60;;;;;;;-140.72;100.00;52177.81;4994485;28;20038;-73
2022/08/12 05:02:16;;;;;;;2.40;1.88;;;;;;;-140.72;100.00;52222.44;4995401;28;20085;-73
2022/08/12 05:04:42;;;;;;;5.32;2.63;;;;;;;-140.72;100.00;52202.16;5013480;28;20041;-73
2022/08/12 05:07:07;;;;;;;3.30;1.90;;;;;;;-140.72;100.00;52173.75;4993130;28;20057;-71
2022/08/12 05:09:33;;;;;;;4.18;2.25;;;;;;;-140.72;100.00;52212.31;4997750;28;20482;-73
2022/08/12 05:11:58;;;;;;;3.38;2.15;;;;;;;-140.72;100.00;52200.13;4997070;28;20041;-71
2022/08/12 05:14:23;;;;;;;3.83;2.38;;;;;;;-140.72;100.00;52165.63;4999796;28;20101;-71
2022/08/12 05:16:50;;;;;;;3.40;2.30;;;;;;;-140.72;100.00;52204.19;4997934;28;20041;-74
2022/08/12 05:19:15;;;;;;;4.82;2.42;;;;;;;-140.72;100.00;52236.66;4996607;28;20030;-72
2022/08/12 05:21:44;;;;;;;3.33;2.25;;;;;;;-140.72;100.00;52202.16;4996620;28;20040;-72
2022/08/12 05:24:09;;;;;;;4.68;2.75;;;;;;;-140.72;100.00;52151.44;5012567;28;20026;-71
2022/08/12 05:26:35;;;;;;;5.93;3.03;;;;;;;-140.72;100.00;52179.84;4996689;28;20053;-70
2022/08/12 05:29:00;;;;;;;5.18;2.33;;;;;;;-140.72;100.00;52175.78;4997219;28;20063;-73
2022/08/12 05:31:25;;;;;;;5.00;3.35;;;;;;;-140.72;100.00;52189.97;4995497;28;20393;-72
2022/08/12 05:33:51;;;;;;;3.45;2.33;;;;;;;-140.72;100.00;52141.28;4996422;28;20113;-71
2022/08/12 05:36:18;;;;;;;6.10;2.45;;;;;;;-140.72;100.00;52204.19;5011097;28;20042;-71
2022/08/12 05:38:57;;;;;;;4.50;2.45;;;;;;;-140.72;100.00;52210.28;4996407;28;20030;-71
2022/08/12 05:41:23;;;;;;;6.60;2.45;;;;;;;-140.72;100.00;52163.59;4992877;28;20039;-71
2022/08/12 05:43:50;;;;;;;3.30;1.85;;;;;;;-140.72;100.00;52187.97;5010493;28;20030;-72
2022/08/12 05:46:16;;;;;;;3.17;2.13;;;;;;;-140.72;100.00;52145.34;5011531;28;20057;-72
2022/08/12 05:48:42;;;;;;;3.97;2.65;;;;;;;-140.72;100.00;52153.47;5017699;28;20026;-69
2022/08/12 05:51:10;;;;;;;3.28;2.10;;;;;;;-140.72;100.00;52187.97;5004029;28;20022;-70
2022/08/12 05:53:36;;;;;;;3.72;2.63;;;;;;;-140.72;100.00;52167.66;5013186;28;20027;-69
2022/08/12 05:56:02;;;;;;;3.63;1.98;;;;;;;-140.72;100.00;52171.72;4997689;28;20383;-69
2022/08/12 05:58:29;;;;;;;3.58;2.35;;;;;;;-140.72;100.00;52177.81;5002348;28;20043;-69
2022/08/12 06:00:55;;;;;;;3.78;2.30;;;;;;;-140.72;100.00;52173.75;5002165;28;20054;-69
2022/08/12 06:03:21;;;;;;;4.47;2.42;;;;;;;-140.72;100.00;52125.06;4999574;28;20096;-69
2022/08/12 06:05:48;;;;;;;2.65;1.98;;;;;;;-140.72;100.00;52147.38;5003636;28;20046;-69
2022/08/12 06:08:14;;;;;;;4.30;2.35;;;;;;;-140.72;100.00;52127.09;5001814;28;20030;-68
2022/08/12 06:10:40;;;;;;;4.32;2.45;;;;;;;-140.72;100.00;52123.03;5001062;28;20452;-69
2022/08/12 06:13:06;;;;;;;4.55;2.45;;;;;;;-140.72;100.00;52139.25;4999727;28;20103;-69
2022/08/12 06:15:36;;;;;;;2.95;1.95;;;;;;;-140.72;100.00;52159.56;4997924;28;20117;-69
2022/08/12 06:18:10;;;;;;;3.03;2.05;;;;;;;-140.72;100.00;52098.69;5013568;28;20093;-73
2022/08/12 06:20:37;;;;;;;3.22;1.73;;;;;;;-140.72;100.00;52102.75;4987812;28;20178;-70
2022/08/12 06:23:04;;;;;;;3.30;2.10;;;;;;;-140.72;100.00;52131.16;5000502;28;20027;-69
2022/08/12 06:25:29;;;;;;;3.33;2.00;;;;;;;-140.72;100.00;52112.88;4998417;28;20042;-69
2022/08/12 06:27:57;;;;;;;3.28;2.15;;;;;;;-140.72;100.00;52155.50;5000926;28;20134;-68
2022/08/12 06:30:34;;;;;;;2.67;1.83;;;;;;;-140.72;100.00;52094.63;4995481;28;20026;-70
2022/08/12 06:32:59;;;;;;;4.57;2.60;;;;;;;-140.72;100.00;52147.38;4996557;28;20586;-69
2022/08/12 06:35:26;;;;;;;2.90;2.13;;;;;;;-140.72;100.00;52116.94;5006148;28;20141;-67
2022/08/12 06:37:59;;;;;;;4.15;2.50;;;;;;;-140.72;100.00;52127.09;4995382;28;20161;-69
2022/08/12 06:43:08;;;;;;;4.18;2.35;;;;;;;-140.72;100.00;52108.81;4996998;28;20045;-67
2022/08/12 06:45:44;;;;;;;6.32;2.20;;;;;;;-140.72;100.00;52110.84;4995176;28;20022;-72
2022/08/12 06:48:10;;;;;;;1.85;1.33;;;;;;;-140.72;100.00;52137.22;4995385;28;20030;-69
2022/08/12 06:50:37;;;;;;;2.05;1.50;;;;;;;-140.72;100.00;52096.66;5010326;28;20045;-75
2022/08/12 06:53:04;;;;;;;2.92;2.00;;;;;;;-140.72;100.00;52090.56;4994069;28;20030;-67
2022/08/12 06:55:30;;;;;;;5.38;1.70;;;;;;;-140.72;100.00;52112.88;4995690;28;20109;-68
2022/08/12 06:58:00;;;;;;;3.10;1.90;;;;;;;-140.72;100.00;52086.50;4995203;28;20486;-68
2022/08/12 07:00:29;;;;;;;2.95;1.80;;;;;;;-140.72;100.00;52090.56;4995862;28;20032;-69
2022/08/12 07:02:55;;;;;;;2.67;1.98;;;;;;;-140.72;100.00;52118.97;5011367;28;20034;-72
2022/08/12 07:05:24;;;;;;;2.10;1.50;;;;;;;-140.72;100.00;52100.72;4996101;28;20394;-74
2022/08/12 07:08:09;;;;;;;2.75;2.10;;;;;;;-140.72;100.00;52072.31;5000821;28;20031;-71
2022/08/12 07:10:40;;;;;;;4.20;2.00;;;;;;;-140.72;100.00;52116.94;5005016;28;20109;-75
2022/08/12 07:13:07;;;;;;;4.13;2.25;;;;;;;-140.72;100.00;52114.91;4997041;28;20026;-72
2022/08/12 07:15:34;;;;;;;3.03;1.95;;;;;;;-140.72;100.00;52104.75;5014390;28;20058;-72
2022/08/12 07:18:00;;;;;;;3.25;2.25;;;;;;;-140.72;100.00;52104.75;4998619;28;20026;-76
2022/08/12 07:20:30;;;;;;;2.97;2.08;;;;;;;-140.72;100.00;52068.25;4997230;28;20049;-72
2022/08/12 07:22:55;;;;;;;;;;;;;;;-140.72;100.00;52090.56;4997187;28;20154;-73
2022/08/12 07:25:30;;;;;;;5.90;2.13;;;;;;;-140.72;100.00;52076.34;5012118;28;19910;-72
2022/08/12 07:27:57;;;;;;;2.88;1.92;;;;;;;-140.72;100.00;52070.28;4996897;28;20042;-75
2022/08/12 07:30:23;;;;;;;2.90;1.98;;;;;;;-140.72;100.00;52070.28;4994073;28;20649;-70
2022/08/12 07:32:50;;;;;;;3.03;2.00;;;;;;;-140.72;100.00;52098.69;4992964;28;20050;-69
2022/08/12 07:35:18;;;;;;;3.38;2.20;;;;;;;-140.72;100.00;52047.97;4997751;28;20065;-73
2022/08/12 07:37:43;;;;;;;3.53;2.30;;;;;;;-140.72;100.00;52045.94;5000729;28;20040;-70
2022/08/12 07:40:10;;;;;;;5.47;2.13;;;;;;;-140.72;100.00;52078.38;5009865;28;20478;-71
2022/08/12 07:42:37;;;;;;;2.53;2.10;;;;;;;-140.72;100.00;52078.38;4994954;28;20085;-71
2022/08/12 07:45:03;;;;;;;2.60;2.20;;;;;;;-140.72;100.00;52064.19;5010118;28;20058;-74
2022/08/12 07:47:29;;;;;;;4.07;2.28;;;;;;;-140.72;100.00;52084.47;4994075;28;20037;-73
2022/08/12 07:49:55;;;;;;;5.90;2.47;;;;;;;-140.72;100.00;52033.75;5006798;28;20049;-79
2022/08/12 07:52:21;;;;;;;3.10;2.00;;;;;;;-140.72;100.00;52074.34;5004878;28;20060;-72
2022/08/12 07:54:47;;;;;;;4.32;2.25;;;;;;;-140.72;100.00;52029.69;4994477;28;20026;-70
2022/08/12 07:57:13;;;;;;;4.05;2.47;;;;;;;-140.72;100.00;52019.56;5020994;28;20092;-72
2022/08/12 07:59:39;;;;;;;3.22;2.10;;;;;;;-140.72;100.00;52025.63;4993345;28;20053;-74
2022/08/12 08:02:07;;;;;;;2.80;1.88;;;;;;;-140.72;96.29;52052.00;4993103;28;20117;-70
2022/08/12 08:07:16;;;;;;;3.10;1.90;;;;;;;-140.72;35.63;52039.84;4998319;28;20092;-72
2022/08/12 08:09:42;;;;;;;5.10;2.58;;;;;;;-140.72;19.54;52029.69;4997969;28;20113;-71
2022/08/12 08:14:54;;;;;;;3.03;2.22;;;;;;;-140.72;0.00;51993.19;4994034;28;20397;-72
2022/08/12 08:17:20;;;;;;;3.10;2.00;;;;;;;-140.72;0.00;51974.91;5009244;28;20062;-70
2022/08/12 08:19:51;;;;;;;3.40;2.25;;;;;;;-140.72;0.00;51960.72;4994440;28;20485;-76
2022/08/12 08:22:25;;;;;;;3.22;2.15;;;;;;;-140.72;0.00;52005.34;4994911;28;20084;-72
2022/08/12 08:24:56;;;;;;;3.25;1.98;;;;;;;-140.72;0.00;51958.69;5002381;28;20030;-69
2022/08/12 08:27:23;;;;;;;3.83;2.22;;;;;;;-140.72;0.00;51942.44;4996881;28;20089;-74
2022/08/12 08:29:48;;;;;;;4.10;2.20;;;;;;;-140.72;0.00;51966.81;4989951;28;20046;-77
2022/08/12 08:32:13;;;;;;;2.70;1.90;;;;;;;-140.72;0.00;51958.69;4993428;28;20026;-74
2022/08/12 08:34:39;;;;;;;4.10;1.98;;;;;;;-140.72;0.00;51877.53;5010822;28;20046;-72
2022/08/12 08:37:05;;;;;;;4.18;2.30;;;;;;;-140.72;0.00;51944.47;4995395;28;20088;-79
2022/08/12 08:39:31;;;;;;;3.85;2.22;;;;;;;-140.72;0.00;51966.81;4996690;28;20023;-74
2022/08/12 08:44:41;;;;;;;3.70;2.30;;;;;;;-140.72;0.00;51932.31;5000984;28;20041;-73
2022/08/12 08:47:11;;;;;;;5.95;2.20;;;;;;;-140.72;0.00;51885.66;5005138;28;20559;-72
2022/08/12 08:49:38;;;;;;;3.00;1.83;;;;;;;-140.72;0.00;51885.66;5005657;28;20525;-82
2022/08/12 08:52:08;;;;;;;3.50;1.98;;;;;;;-140.72;0.00;51863.31;4995897;28;20048;-75
2022/08/12 08:54:36;;;;;;;4.75;1.83;;;;;;;-140.72;0.00;51830.88;5014184;28;20093;-78
2022/08/12 08:57:03;;;;;;;4.28;1.83;;;;;;;-140.72;0.00;51834.91;5000730;28;20015;-77
2022/08/12 08:59:28;;;;;;;2.75;2.03;;;;;;;-140.72;0.00;51836.94;4996297;28;20375;-74
2022/08/12 09:01:54;;;;;;;2.40;1.58;;;;;;;-140.72;0.00;51806.53;4993164;28;20033;-73
2022/08/12 09:04:20;;;;;;;3.42;1.52;;;;;;;-140.72;0.00;51798.41;4999152;28;20027;-72
2022/08/12 09:06:48;;;;;;;2.45;1.73;;;;;;;-140.72;0.00;51802.47;5000794;28;20038;-72
2022/08/12 09:09:13;;;;;;;3.03;2.10;;;;;;;-140.72;0.00;51749.72;5001825;28;20045;-70
2022/08/12 09:14:23;;;;;;;1.90;1.10;;;;;;;-140.72;0.00;51715.22;4992930;28;20044;-74
2022/08/12 09:16:49;;;;;;;2.33;1.33;;;;;;;-140.72;0.00;51705.06;5000436;28;20102;-74
2022/08/12 09:19:16;;;;;;;2.97;1.58;;;;;;;-140.72;0.00;51696.97;4997508;28;20045;-68
2022/08/12 09:21:42;;;;;;;2.20;1.40;;;;;;;-140.72;0.00;51717.25;4996571;28;20430;-76
2022/08/12 09:24:07;;;;;;;2.38;1.15;;;;;;;-140.72;0.00;51654.34;5008812;28;20022;-74
2022/08/12 09:26:34;;;;;;;1.83;1.20;;;;;;;-140.72;0.00;51652.34;5017219;28;20030;-69
2022/08/12 09:28:59;;;;;;;2.35;0.95;;;;;;;-140.72;0.00;51656.38;5000478;28;20061;-66
2022/08/12 09:31:26;;;;;;;1.77;0.90;;;;;;;-140.72;0.00;51603.63;5013205;28;20057;-70
2022/08/12 09:33:52;;;;;;;2.20;1.08;;;;;;;-140.72;0.00;51609.72;5007049;28;20026;-71
2022/08/12 09:36:17;;;;;;;1.92;1.15;;;;;;;-140.72;0.00;51603.63;5015123;28;20050;-71
2022/08/12 09:38:43;;;;;;;2.90;1.23;;;;;;;-140.72;0.00;51571.19;4996459;28;20029;-70
2022/08/12 09:41:09;;;;;;;3.80;1.20;;;;;;;-140.72;0.00;51563.06;4998283;28;20026;-70
2022/08/12 09:46:19;;;;;;;1.90;0.82;;;;;;;-140.72;0.00;51579.28;5000395;28;20518;-70
2022/08/12 09:48:44;;;;;;;2.58;1.10;;;;;;;-140.72;0.00;51522.50;5001612;28;20034;-68
2022/08/12 09:51:11;;;;;;;3.33;1.00;;;;;;;-140.72;0.00;51518.44;4995882;28;20018;-70
2022/08/12 09:53:37;;;;;;;1.77;0.85;;;;;;;-140.72;0.00;51502.22;4998128;28;20060;-71
2022/08/12 09:56:03;;;;;;;1.95;0.98;;;;;;;-140.72;0.00;51461.63;4995009;28;20050;-72
2022/08/12 09:58:29;;;;;;;2.35;1.08;;;;;;;-140.72;0.00;51485.97;5003940;28;20410;-71
2022/08/12 10:01:00;;;;;;;2.40;1.00;;;;;;;-140.72;0.00;51485.97;5002966;28;20033;-70
2022/08/12 10:03:27;;;;;;;1.73;0.80;;;;;;;-140.72;0.00;51459.59;5013134;28;20034;-72
2022/08/12 10:05:53;;;;;;;1.38;0.95;;;;;;;-140.72;0.00;51433.22;5013389;28;20026;-72
2022/08/12 10:08:21;;;;;;;1.75;0.93;;;;;;;-140.72;0.00;51396.72;4998335;28;20418;-71
2022/08/12 10:13:42;;;;;;;1.73;0.77;;;;;;;-140.72;0.00;51374.41;4991432;28;20293;-73
2022/08/12 10:16:09;;;;;;;2.28;0.93;;;;;;;-140.72;0.00;51398.75;4995170;28;20034;-72
2022/08/12 10:18:36;;;;;;;4.45;0.80;;;;;;;-140.72;0.00;51348.03;4985153;28;20030;-72
2022/08/12 10:21:09;;;;;;;2.75;0.80;;;;;;;-140.72;0.00;51364.25;5013421;28;20027;-74
2022/08/12 10:23:37;;;;;;;1.63;0.82;;;;;;;-140.72;0.00;51335.88;5021129;28;20030;-74
2022/08/12 10:31:31;;;;;;;1.23;0.70;;;;;;;-140.72;0.00;51293.25;4995943;28;20543;-75
2022/08/12 10:33:56;;;;;;;1.30;0.65;;;;;;;-140.72;0.00;51323.69;5012224;28;20026;-73
2022/08/12 10:36:23;;;;;;;0.60;0.40;;;;;;;-140.72;0.00;51297.31;5003372;28;20043;-73
2022/08/12 10:38:49;;;;;;;1.58;0.80;;;;;;;-140.72;0.00;51317.59;4992902;28;20037;-73
2022/08/12 10:44:01;;;;;;;0.90;0.57;;;;;;;-140.72;0.00;51262.84;4994935;28;20450;-73
2022/08/12 10:46:26;;;;;;;1.37;0.70;;;;;;;-140.72;0.00;51301.38;4995552;28;20026;-74
2022/08/12 10:48:52;;;;;;;1.42;0.52;;;;;;;-140.72;0.00;51295.28;5014110;28;20387;-73
2022/08/12 10:51:18;;;;;;;1.33;0.30;;;;;;;-140.72;0.00;51232.41;4991301;28;20022;-73
2022/08/12 10:53:47;;;;;;;1.17;0.52;;;;;;;-140.72;0.00;51226.31;5001172;28;20444;-73
2022/08/12 10:56:16;;;;;;;1.10;0.60;;;;;;;-140.72;0.00;51246.59;4992137;28;20066;-73
2022/08/12 10:58:43;;;;;;;0.98;0.60;;;;;;;-140.72;0.00;51228.34;4989700;28;20038;-72
2022/08/12 11:01:09;;;;;;;1.25;0.60;;;;;;;-140.72;0.00;51214.16;5000455;28;20107;-73
2022/08/12 11:03:40;;;;;;;0.95;0.55;;;;;;;-140.72;0.00;51189.81;5013205;28;20030;-74
2022/08/12 11:06:08;;;;;;;0.73;0.40;;;;;;;-140.72;0.00;51208.06;4993348;28;20057;-75
2022/08/12 11:08:38;;;;;;;1.17;0.63;;;;;;;-140.72;0.00;51197.91;4992594;28;20398;-74
2022/08/12 11:11:06;;;;;;;2.22;0.57;;;;;;;-140.72;0.00;51141.13;4992081;28;20108;-74
2022/08/12 11:13:32;;;;;;;1.10;0.60;;;;;;;-140.72;0.00;51167.50;4995418;28;20080;-76
2022/08/12 11:15:58;;;;;;;1.77;0.60;;;;;;;-140.72;0.00;51149.22;5006261;28;20053;-75
2022/08/12 11:18:23;;;;;;;1.00;0.50;;;;;;;-140.72;0.00;51128.94;4992685;28;20482;-75
2022/08/12 11:20:49;;;;;;;1.55;0.60;;;;;;;-140.72;0.00;51122.88;4991849;28;20451;-75
2022/08/12 11:23:15;;;;;;;1.30;0.65;;;;;;;-140.72;0.00;51124.91;4994211;28;20034;-73
2022/08/12 11:25:43;;;;;;;0.65;0.40;;;;;;;-140.72;0.00;51068.09;5008405;28;20019;-75
2022/08/12 11:28:09;;;;;;;1.35;0.52;;;;;;;-140.72;0.00;51135.03;4993107;28;20385;-74
2022/08/12 11:30:34;;;;;;;1.10;0.47;;;;;;;-140.72;0.00;51118.81;4994274;28;20027;-74
2022/08/12 11:33:00;;;;;;;1.23;0.63;;;;;;;-140.72;0.00;51124.91;4994070;28;20437;-71
2022/08/12 11:35:26;;;;;;;2.53;0.60;;;;;;;-140.72;0.00;51133.00;4999677;28;20281;-75
2022/08/12 11:37:52;;;;;;;1.17;0.53;;;;;;;-140.72;0.00;51110.69;5010633;28;20777;-73
2022/08/12 11:40:17;;;;;;;1.02;0.57;;;;;;;-140.72;0.00;51027.53;5008648;28;20039;-74
2022/08/12 11:42:43;;;;;;;0.93;0.43;;;;;;;-140.72;0.00;51037.66;5008698;28;20026;-75
2022/08/12 11:45:09;;;;;;;0.82;0.40;;;;;;;-140.72;0.00;51007.25;5004912;28;20343;-75
2022/08/12 11:47:34;;;;;;;0.95;0.50;;;;;;;-140.72;0.00;51033.63;4986026;28;20064;-75
2022/08/12 11:50:00;;;;;;;0.97;0.47;;;;;;;-140.72;0.00;51084.31;4992797;28;20455;-75
2022/08/12 11:52:25;;;;;;;2.27;0.60;;;;;;;-140.72;0.00;51161.41;5010346;28;20393;-73
2022/08/12 11:54:50;;;;;;;1.23;0.40;;;;;;;-140.72;0.00;51165.47;5008405;28;20293;-74
2022/08/12 11:57:16;;;;;;;1.05;0.60;;;;;;;-140.72;0.00;51104.59;4993303;28;20293;-75
2022/08/12 11:59:42;;;;;;;1.35;0.60;;;;;;;-140.72;0.00;51112.72;4991974;28;20051;-75
2022/08/12 12:02:08;;;;;;;0.77;0.47;;;;;;;-140.72;0.00;51070.13;4991599;28;20166;-75
2022/08/12 12:04:33;;;;;;;3.53;0.60;;;;;;;-140.72;0.00;51051.88;4992132;28;20562;-75
2022/08/12 12:06:58;;;;;;;4.43;0.80;;;;;;;-140.72;0.00;51027.53;4991800;28;20085;-75
2022/08/12 12:09:25;;;;;;;0.70;0.40;;;;;;;-140.72;0.00;51027.53;4993048;28;20789;-75
2022/08/12 12:11:50;;;;;;;0.88;0.45;;;;;;;-140.72;0.00;51029.56;4995128;28;20117;-75
2022/08/12 12:14:16;;;;;;;2.78;0.73;;;;;;;-140.72;0.00;51027.53;4993734;28;20502;-75
2022/08/12 12:16:41;;;;;;;0.65;0.40;;;;;;;-140.72;0.00;51072.16;4992946;28;20072;-74
2022/08/12 12:19:07;;;;;;;2.42;0.45;;;;;;;-140.72;0.00;51096.50;4992503;28;20513;-77
2022/08/12 12:21:33;;;;;;;1.27;0.57;;;;;;;-140.72;0.00;51039.69;4990630;28;20106;-76
2022/08/12 12:23:58;;;;;;;1.58;0.35;;;;;;;-140.72;0.00;51003.19;5007433;28;20497;-76
2022/08/12 12:26:23;;;;;;;0.75;0.30;;;;;;;-140.72;0.00;50970.72;4995206;28;20031;-76
2022/08/12 12:28:49;;;;;;;0.47;0.30;;;;;;;-140.72;0.00;51055.94;4992127;28;20018;-81
2022/08/12 12:31:14;;;;;;;0.98;0.50;;;;;;;-140.72;0.00;51039.69;4992161;28;20300;-80
2022/08/12 12:33:40;;;;;;;0.65;0.35;;;;;;;-140.72;0.00;51094.47;5002821;28;20030;-79
2022/08/12 12:36:08;;;;;;;0.95;0.40;;;;;;;-140.72;0.00;51072.16;4992255;28;20449;-80
2022/08/12 12:38:34;;;;;;;0.90;0.40;;;;;;;-140.72;0.00;51066.06;5003936;28;20030;-78
2022/08/12 12:40:59;;;;;;;1.35;0.52;;;;;;;-140.72;0.00;51098.53;4991862;28;20041;-80
2022/08/12 12:43:25;;;;;;;1.58;0.50;;;;;;;-140.72;0.00;51167.50;4998603;28;20176;-79
2022/08/12 12:45:51;;;;;;;1.15;0.52;;;;;;;-140.72;0.00;51128.94;5015604;28;20026;-79
2022/08/12 12:48:18;;;;;;;0.70;0.50;;;;;;;-140.72;0.00;51092.44;4986478;28;20397;-80
2022/08/12 12:51:14;;;;;;;0.57;0.30;;;;;;;-140.72;0.00;51037.66;4979239;28;20491;-78
2022/08/12 12:53:39;;;;;;;1.00;0.50;;;;;;;-140.72;0.00;51031.59;4984926;28;20116;-79
2022/08/12 12:56:09;;;;;;;0.57;0.30;;;;;;;-140.72;0.00;51072.16;4997595;28;20030;-79
2022/08/12 12:58:36;;;;;;;0.90;0.40;;;;;;;-140.72;0.00;51035.66;4991543;28;20034;-79
2022/08/12 13:01:01;;;;;;;0.57;0.38;;;;;;;-140.72;0.00;51068.09;4990510;28;20030;-80
2022/08/12 13:03:27;;;;;;;1.48;0.52;;;;;;;-140.72;0.00;51114.75;4990728;28;20038;-78
2022/08/12 13:05:55;;;;;;;0.60;0.30;;;;;;;-140.72;0.00;51053.91;4992531;28;20038;-79
2022/08/12 13:08:23;;;;;;;1.60;0.60;;;;;;;-140.72;0.00;51072.16;4988789;28;20050;-80